sensor_id;sensor_type;location;lat;lon;timestamp;pressure;altitude;pressure_sealevel;temperature;humidity
1954;BME280;977;42.704;23.354;2022-07-29T00:00:08;95293.56;;;19.70;100.00
1954;BME280;977;42.704;23.354;2022-07-29T00:02:34;95294.72;;;19.74;100.00
1954;BME280;977;42.704;23.354;2022-07-29T00:04:59;95298.75;;;19.76;100.00
1954;BME280;977;42.704;23.354;2022-07-29T00:07:25;95308.94;;;19.73;100.00
1954;BME280;977;42.704;23.354;2022-07-29T00:09:50;95310.31;;;19.75;100.00
1954;BME280;977;42.704;23.354;2022-07-29T00:12:16;95323.31;;;19.77;100.00
1954;BME280;977;42.704;23.354;2022-07-29T00:14:47;95313.66;;;19.82;100.00
1954;BME280;977;42.704;23.354;2022-07-29T00:17:13;95313.53;;;19.89;100.00
1954;BME280;977;42.704;23.354;2022-07-29T00:19:39;95316.75;;;19.91;100.00
1954;BME280;977;42.704;23.354;2022-07-29T00:22:04;95321.00;;;19.92;100.00
1954;BME280;977;42.704;23.354;2022-07-29T00:24:29;95318.81;;;19.89;100.00
1954;BME280;977;42.704;23.354;2022-07-29T00:26:55;95314.22;;;19.96;100.00
1954;BME280;977;42.704;23.354;2022-07-29T00:29:20;95320.66;;;20.00;100.00
1954;BME280;977;42.704;23.354;2022-07-29T00:31:46;95311.00;;;19.94;100.00
1954;BME280;977;42.704;23.354;2022-07-29T00:34:34;95317.22;;;19.88;100.00
1954;BME280;977;42.704;23.354;2022-07-29T00:37:19;95313.75;;;19.76;100.00
1954;BME280;977;42.704;23.354;2022-07-29T00:39:44;95308.84;;;19.68;100.00
1954;BME280;977;42.704;23.354;2022-07-29T00:42:10;95317.78;;;19.78;100.00
1954;BME280;977;42.704;23.354;2022-07-29T00:44:37;95314.00;;;19.74;100.00
1954;BME280;977;42.704;23.354;2022-07-29T00:47:03;95313.19;;;19.74;100.00
1954;BME280;977;42.704;23.354;2022-07-29T00:49:32;95321.91;;;19.74;100.00
1954;BME280;977;42.704;23.354;2022-07-29T00:52:01;95319.03;;;19.76;100.00
1954;BME280;977;42.704;23.354;2022-07-29T00:54:26;95324.91;;;19.78;100.00
1954;BME280;977;42.704;23.354;2022-07-29T00:56:52;95322.25;;;19.78;100.00
1954;BME280;977;42.704;23.354;2022-07-29T00:59:18;95325.72;;;19.78;100.00
1954;BME280;977;42.704;23.354;2022-07-29T01:01:44;95332.13;;;19.71;100.00
1954;BME280;977;42.704;23.354;2022-07-29T01:04:09;95315.59;;;19.63;100.00
1954;BME280;977;42.704;23.354;2022-07-29T01:06:35;95305.28;;;19.62;100.00
1954;BME280;977;42.704;23.354;2022-07-29T01:09:01;95312.72;;;19.53;100.00
1954;BME280;977;42.704;23.354;2022-07-29T01:11:27;95311.56;;;19.49;100.00
1954;BME280;977;42.704;23.354;2022-07-29T01:13:56;95306.97;;;19.45;100.00
1954;BME280;977;42.704;23.354;2022-07-29T01:16:32;95316.94;;;19.42;100.00
1954;BME280;977;42.704;23.354;2022-07-29T01:19:25;95312.31;;;19.38;100.00
1954;BME280;977;42.704;23.354;2022-07-29T01:21:57;95307.16;;;19.31;100.00
1954;BME280;977;42.704;23.354;2022-07-29T01:30:05;95299.38;;;19.25;100.00
1954;BME280;977;42.704;23.354;2022-07-29T01:32:36;95299.94;;;19.27;100.00
1954;BME280;977;42.704;23.354;2022-07-29T01:37:45;95296.50;;;19.26;100.00
1954;BME280;977;42.704;23.354;2022-07-29T01:42:55;95288.34;;;19.16;100.00
1954;BME280;977;42.704;23.354;2022-07-29T01:45:31;95290.50;;;19.07;100.00
1954;BME280;977;42.704;23.354;2022-07-29T01:48:25;95284.06;;;19.03;100.00
1954;BME280;977;42.704;23.354;2022-07-29T01:54:12;95294.19;;;19.06;100.00
1954;BME280;977;42.704;23.354;2022-07-29T01:56:39;95298.47;;;18.89;100.00
1954;BME280;977;42.704;23.354;2022-07-29T01:59:06;95286.50;;;18.75;100.00
1954;BME280;977;42.704;23.354;2022-07-29T02:01:33;95283.59;;;18.64;100.00
1954;BME280;977;42.704;23.354;2022-07-29T02:04:03;95279.41;;;18.57;100.00
1954;BME280;977;42.704;23.354;2022-07-29T02:06:29;95272.19;;;18.52;100.00
1954;BME280;977;42.704;23.354;2022-07-29T02:08:57;95278.25;;;18.53;100.00
1954;BME280;977;42.704;23.354;2022-07-29T02:11:23;95272.06;;;18.47;100.00
1954;BME280;977;42.704;23.354;2022-07-29T02:13:50;95262.53;;;18.46;100.00
1954;BME280;977;42.704;23.354;2022-07-29T02:16:21;95268.69;;;18.58;100.00
1954;BME280;977;42.704;23.354;2022-07-29T02:18:49;95269.25;;;18.60;100.00
1954;BME280;977;42.704;23.354;2022-07-29T02:21:20;95283.75;;;18.70;100.00
1954;BME280;977;42.704;23.354;2022-07-29T02:23:48;95269.91;;;18.74;100.00
1954;BME280;977;42.704;23.354;2022-07-29T02:26:17;95276.31;;;18.78;100.00
1954;BME280;977;42.704;23.354;2022-07-29T02:28:43;95276.22;;;18.85;100.00
1954;BME280;977;42.704;23.354;2022-07-29T02:31:10;95276.72;;;18.94;100.00
1954;BME280;977;42.704;23.354;2022-07-29T02:33:37;95269.16;;;18.97;100.00
1954;BME280;977;42.704;23.354;2022-07-29T02:36:06;95267.88;;;19.00;100.00
1954;BME280;977;42.704;23.354;2022-07-29T02:38:35;95259.06;;;18.94;100.00
1954;BME280;977;42.704;23.354;2022-07-29T02:41:37;95252.97;;;18.94;100.00
1954;BME280;977;42.704;23.354;2022-07-29T02:44:09;95256.16;;;18.84;100.00
1954;BME280;977;42.704;23.354;2022-07-29T02:46:36;95244.13;;;18.88;100.00
1954;BME280;977;42.704;23.354;2022-07-29T02:51:46;95255.56;;;18.82;100.00
1954;BME280;977;42.704;23.354;2022-07-29T02:54:22;95253.97;;;18.81;100.00
1954;BME280;977;42.704;23.354;2022-07-29T02:56:49;95260.84;;;18.82;100.00
1954;BME280;977;42.704;23.354;2022-07-29T02:59:22;95262.56;;;18.76;100.00
1954;BME280;977;42.704;23.354;2022-07-29T03:01:48;95257.28;;;18.76;100.00
1954;BME280;977;42.704;23.354;2022-07-29T03:04:16;95257.88;;;18.78;100.00
1954;BME280;977;42.704;23.354;2022-07-29T03:06:43;95246.22;;;18.68;100.00
1954;BME280;977;42.704;23.354;2022-07-29T03:09:10;95259.78;;;18.71;100.00
1954;BME280;977;42.704;23.354;2022-07-29T03:11:38;95259.06;;;18.64;100.00
1954;BME280;977;42.704;23.354;2022-07-29T03:14:04;95244.13;;;18.58;100.00
1954;BME280;977;42.704;23.354;2022-07-29T03:16:30;95256.63;;;18.62;100.00
1954;BME280;977;42.704;23.354;2022-07-29T03:18:57;95263.16;;;18.60;100.00
1954;BME280;977;42.704;23.354;2022-07-29T03:21:23;95258.13;;;18.58;100.00
1954;BME280;977;42.704;23.354;2022-07-29T03:23:48;95249.88;;;18.55;100.00
1954;BME280;977;42.704;23.354;2022-07-29T03:26:14;95257.97;;;18.53;100.00
1954;BME280;977;42.704;23.354;2022-07-29T03:28:39;95259.09;;;18.46;100.00
1954;BME280;977;42.704;23.354;2022-07-29T03:31:05;95266.66;;;18.42;100.00
1954;BME280;977;42.704;23.354;2022-07-29T03:33:30;95260.16;;;18.45;100.00
1954;BME280;977;42.704;23.354;2022-07-29T03:35:56;95257.50;;;18.45;100.00
1954;BME280;977;42.704;23.354;2022-07-29T03:38:25;95264.59;;;18.44;100.00
1954;BME280;977;42.704;23.354;2022-07-29T03:40:56;95260.94;;;18.45;100.00
1954;BME280;977;42.704;23.354;2022-07-29T03:43:23;95260.22;;;18.38;100.00
1954;BME280;977;42.704;23.354;2022-07-29T03:45:54;95261.09;;;18.32;100.00
1954;BME280;977;42.704;23.354;2022-07-29T03:48:23;95269.81;;;18.32;100.00
1954;BME280;977;42.704;23.354;2022-07-29T03:50:51;95265.56;;;18.31;100.00
1954;BME280;977;42.704;23.354;2022-07-29T03:53:16;95265.56;;;18.31;100.00
1954;BME280;977;42.704;23.354;2022-07-29T03:55:48;95274.28;;;18.32;100.00
1954;BME280;977;42.704;23.354;2022-07-29T03:58:16;95271.66;;;18.32;100.00
1954;BME280;977;42.704;23.354;2022-07-29T04:00:44;95279.41;;;18.27;100.00
1954;BME280;977;42.704;23.354;2022-07-29T04:03:10;95285.38;;;18.34;100.00
1954;BME280;977;42.704;23.354;2022-07-29T04:05:36;95290.22;;;18.37;100.00
1954;BME280;977;42.704;23.354;2022-07-29T04:08:01;95280.25;;;18.39;100.00
1954;BME280;977;42.704;23.354;2022-07-29T04:10:27;95296.13;;;18.51;100.00
1954;BME280;977;42.704;23.354;2022-07-29T04:12:52;95288.63;;;18.66;100.00
1954;BME280;977;42.704;23.354;2022-07-29T04:15:18;95283.91;;;18.86;100.00
1954;BME280;977;42.704;23.354;2022-07-29T04:17:44;95276.03;;;19.10;100.00
1954;BME280;977;42.704;23.354;2022-07-29T04:20:10;95268.72;;;19.24;100.00
1954;BME280;977;42.704;23.354;2022-07-29T04:22:38;95273.34;;;19.40;100.00
1954;BME280;977;42.704;23.354;2022-07-29T04:25:04;95277.72;;;19.58;100.00
1954;BME280;977;42.704;23.354;2022-07-29T04:27:30;95264.41;;;19.64;100.00
1954;BME280;977;42.704;23.354;2022-07-29T04:29:55;95271.50;;;19.76;100.00
1954;BME280;977;42.704;23.354;2022-07-29T04:32:21;95275.09;;;19.81;100.00
1954;BME280;977;42.704;23.354;2022-07-29T04:34:46;95281.63;;;19.67;100.00
1954;BME280;977;42.704;23.354;2022-07-29T04:37:12;95277.84;;;19.63;100.00
1954;BME280;977;42.704;23.354;2022-07-29T04:39:37;95292.66;;;19.64;100.00
1954;BME280;977;42.704;23.354;2022-07-29T04:42:03;95289.88;;;19.71;100.00
1954;BME280;977;42.704;23.354;2022-07-29T04:44:29;95290.34;;;19.68;100.00
1954;BME280;977;42.704;23.354;2022-07-29T04:46:54;95290.81;;;19.76;100.00
1954;BME280;977;42.704;23.354;2022-07-29T04:49:20;95290.69;;;19.83;100.00
1954;BME280;977;42.704;23.354;2022-07-29T04:51:45;95290.44;;;19.84;100.00
1954;BME280;977;42.704;23.354;2022-07-29T04:54:11;95300.09;;;19.90;100.00
1954;BME280;977;42.704;23.354;2022-07-29T04:56:36;95293.19;;;19.89;100.00
1954;BME280;977;42.704;23.354;2022-07-29T04:59:02;95298.81;;;20.05;100.00
1954;BME280;977;42.704;23.354;2022-07-29T05:01:27;95296.16;;;20.16;100.00
1954;BME280;977;42.704;23.354;2022-07-29T05:03:53;95294.16;;;20.35;100.00
1954;BME280;977;42.704;23.354;2022-07-29T05:06:18;95294.56;;;20.56;100.00
1954;BME280;977;42.704;23.354;2022-07-29T05:08:43;95297.09;;;20.79;100.00
1954;BME280;977;42.704;23.354;2022-07-29T05:11:09;95304.22;;;21.07;100.00
1954;BME280;977;42.704;23.354;2022-07-29T05:13:35;95299.59;;;21.14;100.00
1954;BME280;977;42.704;23.354;2022-07-29T05:16:01;95300.78;;;21.24;100.00
1954;BME280;977;42.704;23.354;2022-07-29T05:18:26;95309.25;;;21.54;100.00
1954;BME280;977;42.704;23.354;2022-07-29T05:20:52;95312.94;;;21.70;100.00
1954;BME280;977;42.704;23.354;2022-07-29T05:23:17;95316.25;;;21.99;100.00
1954;BME280;977;42.704;23.354;2022-07-29T05:25:43;95308.06;;;22.17;100.00
1954;BME280;977;42.704;23.354;2022-07-29T05:28:08;95315.50;;;22.20;100.00
1954;BME280;977;42.704;23.354;2022-07-29T05:30:34;95310.09;;;22.32;100.00
1954;BME280;977;42.704;23.354;2022-07-29T05:32:59;95320.56;;;22.44;100.00
1954;BME280;977;42.704;23.354;2022-07-29T05:35:25;95305.59;;;22.55;100.00
1954;BME280;977;42.704;23.354;2022-07-29T05:37:50;95304.75;;;22.76;100.00
1954;BME280;977;42.704;23.354;2022-07-29T05:40:16;95317.63;;;23.11;100.00
1954;BME280;977;42.704;23.354;2022-07-29T05:42:41;95309.88;;;23.37;100.00
1954;BME280;977;42.704;23.354;2022-07-29T05:45:07;95314.38;;;23.68;100.00
1954;BME280;977;42.704;23.354;2022-07-29T05:47:42;95318.19;;;23.78;100.00
1954;BME280;977;42.704;23.354;2022-07-29T05:50:08;95315.53;;;23.78;100.00
1954;BME280;977;42.704;23.354;2022-07-29T05:52:33;95317.16;;;23.84;100.00
1954;BME280;977;42.704;23.354;2022-07-29T05:54:59;95324.38;;;23.93;100.00
1954;BME280;977;42.704;23.354;2022-07-29T05:57:27;95310.69;;;24.17;100.00
1954;BME280;977;42.704;23.354;2022-07-29T05:59:53;95320.59;;;24.32;100.00
1954;BME280;977;42.704;23.354;2022-07-29T06:02:19;95318.28;;;24.40;100.00
1954;BME280;977;42.704;23.354;2022-07-29T06:04:44;95318.38;;;24.61;100.00
1954;BME280;977;42.704;23.354;2022-07-29T06:07:10;95319.75;;;24.84;100.00
1954;BME280;977;42.704;23.354;2022-07-29T06:09:36;95322.47;;;25.04;78.14
1954;BME280;977;42.704;23.354;2022-07-29T06:12:02;95310.25;;;25.08;76.21
1954;BME280;977;42.704;23.354;2022-07-29T06:14:27;95316.13;;;25.26;74.98
1954;BME280;977;42.704;23.354;2022-07-29T06:16:53;95319.59;;;25.21;75.35
1954;BME280;977;42.704;23.354;2022-07-29T06:19:19;95322.25;;;25.21;75.16
1954;BME280;977;42.704;23.354;2022-07-29T06:21:46;95326.50;;;25.17;76.07
1954;BME280;977;42.704;23.354;2022-07-29T06:24:12;95324.66;;;25.28;74.86
1954;BME280;977;42.704;23.354;2022-07-29T06:26:39;95322.53;;;25.19;76.25
1954;BME280;977;42.704;23.354;2022-07-29T06:29:08;95326.81;;;25.46;74.89
1954;BME280;977;42.704;23.354;2022-07-29T06:31:36;95321.47;;;25.56;73.47
1954;BME280;977;42.704;23.354;2022-07-29T06:34:02;95320.41;;;25.37;73.79
1954;BME280;977;42.704;23.354;2022-07-29T06:36:27;95309.19;;;25.40;74.03
1954;BME280;977;42.704;23.354;2022-07-29T06:38:52;95309.19;;;25.14;75.67
1954;BME280;977;42.704;23.354;2022-07-29T06:41:18;95310.28;;;25.29;74.87
1954;BME280;977;42.704;23.354;2022-07-29T06:43:45;95307.38;;;25.45;73.96
1954;BME280;977;42.704;23.354;2022-07-29T06:46:15;95317.22;;;25.55;73.00
1954;BME280;977;42.704;23.354;2022-07-29T06:48:44;95315.88;;;25.47;73.25
1954;BME280;977;42.704;23.354;2022-07-29T06:51:11;95314.00;;;25.68;73.17
1954;BME280;977;42.704;23.354;2022-07-29T06:53:38;95310.78;;;25.92;70.64
1954;BME280;977;42.704;23.354;2022-07-29T06:56:06;95314.47;;;26.27;69.14
1954;BME280;977;42.704;23.354;2022-07-29T06:58:35;95314.94;;;26.49;67.82
1954;BME280;977;42.704;23.354;2022-07-29T07:01:21;95309.47;;;26.74;65.17
1954;BME280;977;42.704;23.354;2022-07-29T07:03:47;95316.03;;;26.97;64.66
1954;BME280;977;42.704;23.354;2022-07-29T07:06:18;95313.69;;;26.86;64.85
1954;BME280;977;42.704;23.354;2022-07-29T07:08:46;95296.72;;;27.16;63.36
1954;BME280;977;42.704;23.354;2022-07-29T07:11:12;95310.19;;;26.90;62.92
1954;BME280;977;42.704;23.354;2022-07-29T07:13:37;95296.03;;;26.90;62.12
1954;BME280;977;42.704;23.354;2022-07-29T07:16:12;95290.50;;;27.25;61.54
1954;BME280;977;42.704;23.354;2022-07-29T07:18:53;95300.47;;;27.49;60.11
1954;BME280;977;42.704;23.354;2022-07-29T07:21:21;95309.41;;;27.68;59.84
1954;BME280;977;42.704;23.354;2022-07-29T07:23:50;95305.22;;;27.57;60.33
1954;BME280;977;42.704;23.354;2022-07-29T07:26:15;95310.41;;;27.77;59.89
1954;BME280;977;42.704;23.354;2022-07-29T07:28:41;95290.16;;;27.66;59.24
1954;BME280;977;42.704;23.354;2022-07-29T07:31:06;95291.53;;;27.93;59.49
1954;BME280;977;42.704;23.354;2022-07-29T07:33:50;95287.28;;;27.92;59.16
1954;BME280;977;42.704;23.354;2022-07-29T07:36:19;95287.31;;;27.87;59.95
1954;BME280;977;42.704;23.354;2022-07-29T07:38:45;95279.81;;;27.25;61.20
1954;BME280;977;42.704;23.354;2022-07-29T07:41:10;95295.97;;;27.10;62.22
1954;BME280;977;42.704;23.354;2022-07-29T07:43:36;95289.38;;;27.32;62.16
1954;BME280;977;42.704;23.354;2022-07-29T07:46:01;95274.00;;;27.52;60.51
1954;BME280;977;42.704;23.354;2022-07-29T07:48:27;95291.75;;;27.72;60.04
1954;BME280;977;42.704;23.354;2022-07-29T07:50:52;95295.09;;;28.12;59.49
1954;BME280;977;42.704;23.354;2022-07-29T07:53:21;95276.59;;;28.16;58.07
1954;BME280;977;42.704;23.354;2022-07-29T07:55:50;95286.88;;;28.27;58.34
1954;BME280;977;42.704;23.354;2022-07-29T07:58:16;95299.25;;;28.71;56.51
1954;BME280;977;42.704;23.354;2022-07-29T08:00:44;95294.91;;;28.75;56.39
1954;BME280;977;42.704;23.354;2022-07-29T08:03:10;95294.88;;;28.57;56.27
1954;BME280;977;42.704;23.354;2022-07-29T08:05:40;95292.09;;;28.19;56.19
1954;BME280;977;42.704;23.354;2022-07-29T08:08:05;95280.50;;;27.70;57.47
1954;BME280;977;42.704;23.354;2022-07-29T08:10:31;95282.47;;;27.89;57.77
1954;BME280;977;42.704;23.354;2022-07-29T08:13:15;95287.91;;;28.08;56.52
1954;BME280;977;42.704;23.354;2022-07-29T08:15:41;95284.78;;;28.24;55.99
1954;BME280;977;42.704;23.354;2022-07-29T08:18:08;95293.44;;;28.64;54.78
1954;BME280;977;42.704;23.354;2022-07-29T08:20:34;95283.50;;;28.65;54.60
1954;BME280;977;42.704;23.354;2022-07-29T08:23:01;95285.13;;;28.85;54.31
1954;BME280;977;42.704;23.354;2022-07-29T08:25:37;95277.66;;;28.82;54.90
1954;BME280;977;42.704;23.354;2022-07-29T08:28:08;95264.34;;;29.14;53.01
1954;BME280;977;42.704;23.354;2022-07-29T08:30:39;95281.75;;;29.49;51.02
1954;BME280;977;42.704;23.354;2022-07-29T08:33:05;95267.97;;;29.23;51.78
1954;BME280;977;42.704;23.354;2022-07-29T08:35:31;95278.53;;;29.34;51.37
1954;BME280;977;42.704;23.354;2022-07-29T08:38:10;95268.97;;;29.27;50.94
1954;BME280;977;42.704;23.354;2022-07-29T08:40:46;95265.69;;;29.31;51.57
1954;BME280;977;42.704;23.354;2022-07-29T08:43:17;95263.38;;;29.75;50.61
1954;BME280;977;42.704;23.354;2022-07-29T08:45:48;95262.63;;;30.02;49.35
1954;BME280;977;42.704;23.354;2022-07-29T08:48:19;95260.34;;;30.37;48.37
1954;BME280;977;42.704;23.354;2022-07-29T08:50:47;95268.72;;;30.36;48.25
1954;BME280;977;42.704;23.354;2022-07-29T08:53:26;95252.97;;;30.57;47.96
1954;BME280;977;42.704;23.354;2022-07-29T08:55:53;95268.38;;;30.78;46.67
1954;BME280;977;42.704;23.354;2022-07-29T08:58:20;95265.38;;;30.66;47.34
1954;BME280;977;42.704;23.354;2022-07-29T09:00:50;95267.78;;;30.68;47.82
1954;BME280;977;42.704;23.354;2022-07-29T09:03:19;95265.28;;;30.85;47.97
1954;BME280;977;42.704;23.354;2022-07-29T09:05:46;95254.03;;;30.69;46.39
1954;BME280;977;42.704;23.354;2022-07-29T09:08:13;95265.81;;;30.73;45.85
1954;BME280;977;42.704;23.354;2022-07-29T09:10:39;95256.38;;;30.98;45.11
1954;BME280;977;42.704;23.354;2022-07-29T09:13:05;95254.56;;;31.08;44.95
1954;BME280;977;42.704;23.354;2022-07-29T09:15:31;95251.59;;;31.32;43.72
1954;BME280;977;42.704;23.354;2022-07-29T09:17:59;95252.63;;;31.44;43.21
1954;BME280;977;42.704;23.354;2022-07-29T09:20:26;95253.91;;;31.24;42.77
1954;BME280;977;42.704;23.354;2022-07-29T09:23:12;95255.00;;;31.01;42.99
1954;BME280;977;42.704;23.354;2022-07-29T09:25:39;95264.88;;;30.92;42.52
1954;BME280;977;42.704;23.354;2022-07-29T09:28:09;95241.19;;;31.16;43.03
1954;BME280;977;42.704;23.354;2022-07-29T09:30:36;95251.47;;;31.00;42.43
1954;BME280;977;42.704;23.354;2022-07-29T09:33:14;95248.88;;;31.09;42.61
1954;BME280;977;42.704;23.354;2022-07-29T09:35:40;95253.50;;;31.31;41.90
1954;BME280;977;42.704;23.354;2022-07-29T09:38:13;95253.44;;;31.45;42.60
1954;BME280;977;42.704;23.354;2022-07-29T09:40:39;95251.03;;;31.97;42.06
1954;BME280;977;42.704;23.354;2022-07-29T09:43:12;95243.72;;;31.89;41.47
1954;BME280;977;42.704;23.354;2022-07-29T09:45:38;95236.97;;;32.00;41.58
1954;BME280;977;42.704;23.354;2022-07-29T09:48:19;95241.88;;;32.38;40.88
1954;BME280;977;42.704;23.354;2022-07-29T09:50:45;95236.53;;;32.15;40.79
1954;BME280;977;42.704;23.354;2022-07-29T09:53:12;95242.81;;;32.02;41.03
1954;BME280;977;42.704;23.354;2022-07-29T09:55:54;95243.06;;;31.29;41.55
1954;BME280;977;42.704;23.354;2022-07-29T09:58:21;95232.63;;;31.59;41.85
1954;BME280;977;42.704;23.354;2022-07-29T10:00:50;95232.28;;;31.83;39.96
1954;BME280;977;42.704;23.354;2022-07-29T10:03:16;95226.34;;;32.03;39.59
1954;BME280;977;42.704;23.354;2022-07-29T10:05:43;95228.78;;;32.14;39.21
1954;BME280;977;42.704;23.354;2022-07-29T10:08:10;95228.78;;;32.22;39.34
1954;BME280;977;42.704;23.354;2022-07-29T10:10:41;95214.22;;;32.23;39.40
1954;BME280;977;42.704;23.354;2022-07-29T10:13:10;95212.69;;;31.60;39.68
1954;BME280;977;42.704;23.354;2022-07-29T10:15:43;95199.09;;;31.96;39.62
1954;BME280;977;42.704;23.354;2022-07-29T10:18:14;95212.44;;;32.10;39.10
1954;BME280;977;42.704;23.354;2022-07-29T10:20:42;95192.16;;;32.13;39.54
1954;BME280;977;42.704;23.354;2022-07-29T10:23:08;95190.63;;;32.20;39.37
1954;BME280;977;42.704;23.354;2022-07-29T10:25:34;95193.69;;;32.45;39.32
1954;BME280;977;42.704;23.354;2022-07-29T10:27:59;95185.78;;;32.74;37.95
1954;BME280;977;42.704;23.354;2022-07-29T10:30:25;95188.19;;;32.85;37.57
1954;BME280;977;42.704;23.354;2022-07-29T10:36:15;95180.69;;;33.33;36.84
1954;BME280;977;42.704;23.354;2022-07-29T10:44:36;95179.72;;;32.34;36.71
1954;BME280;977;42.704;23.354;2022-07-29T10:47:07;95169.28;;;32.50;38.17
1954;BME280;977;42.704;23.354;2022-07-29T10:49:33;95175.94;;;32.44;38.33
1954;BME280;977;42.704;23.354;2022-07-29T10:52:00;95165.81;;;32.75;37.16
1954;BME280;977;42.704;23.354;2022-07-29T10:59:49;95155.97;;;33.14;37.08
1954;BME280;977;42.704;23.354;2022-07-29T11:05:09;95145.16;;;32.36;36.86
1954;BME280;977;42.704;23.354;2022-07-29T11:07:36;95143.78;;;32.39;38.61
1954;BME280;977;42.704;23.354;2022-07-29T11:10:28;95151.13;;;32.07;38.66
1954;BME280;977;42.704;23.354;2022-07-29T11:12:54;95141.28;;;31.94;39.60
1954;BME280;977;42.704;23.354;2022-07-29T11:15:23;95136.28;;;32.27;38.35
1954;BME280;977;42.704;23.354;2022-07-29T11:20:43;95139.09;;;32.13;38.68
1954;BME280;977;42.704;23.354;2022-07-29T11:23:22;95121.28;;;32.52;38.20
1954;BME280;977;42.704;23.354;2022-07-29T11:28:38;95131.47;;;31.98;39.92
1954;BME280;977;42.704;23.354;2022-07-29T11:31:05;95128.66;;;32.20;39.24
1954;BME280;977;42.704;23.354;2022-07-29T11:33:33;95125.88;;;32.51;38.59
1954;BME280;977;42.704;23.354;2022-07-29T11:36:13;95135.53;;;32.52;38.67
1954;BME280;977;42.704;23.354;2022-07-29T11:38:39;95140.16;;;31.55;40.05
1954;BME280;977;42.704;23.354;2022-07-29T11:41:23;95128.38;;;31.73;40.49
1954;BME280;977;42.704;23.354;2022-07-29T11:43:58;95122.44;;;32.02;39.38
1954;BME280;977;42.704;23.354;2022-07-29T11:46:44;95115.38;;;32.33;39.33
1954;BME280;977;42.704;23.354;2022-07-29T11:49:24;95125.22;;;32.46;38.76
1954;BME280;977;42.704;23.354;2022-07-29T11:51:53;95114.03;;;31.87;39.25
1954;BME280;977;42.704;23.354;2022-07-29T11:54:32;95104.88;;;32.05;39.54
1954;BME280;977;42.704;23.354;2022-07-29T11:57:02;95113.31;;;32.29;39.08
1954;BME280;977;42.704;23.354;2022-07-29T11:59:28;95112.53;;;32.46;38.44
1954;BME280;977;42.704;23.354;2022-07-29T12:01:55;95105.91;;;32.61;38.20
1954;BME280;977;42.704;23.354;2022-07-29T12:04:21;95107.97;;;32.38;37.78
1954;BME280;977;42.704;23.354;2022-07-29T12:06:50;95108.69;;;31.95;38.49
1954;BME280;977;42.704;23.354;2022-07-29T12:09:16;95113.19;;;31.77;38.74
1954;BME280;977;42.704;23.354;2022-07-29T12:11:43;95109.28;;;31.84;39.31
1954;BME280;977;42.704;23.354;2022-07-29T12:14:08;95101.03;;;31.89;38.43
1954;BME280;977;42.704;23.354;2022-07-29T12:16:35;95098.09;;;31.59;38.93
1954;BME280;977;42.704;23.354;2022-07-29T12:19:02;95105.25;;;31.72;38.82
1954;BME280;977;42.704;23.354;2022-07-29T12:21:29;95091.72;;;32.03;38.30
1954;BME280;977;42.704;23.354;2022-07-29T12:23:56;95101.78;;;32.38;37.88
1954;BME280;977;42.704;23.354;2022-07-29T12:26:24;95096.66;;;32.36;37.72
1954;BME280;977;42.704;23.354;2022-07-29T12:28:49;95091.13;;;32.24;38.09
1954;BME280;977;42.704;23.354;2022-07-29T12:31:18;95096.34;;;32.29;37.95
1954;BME280;977;42.704;23.354;2022-07-29T12:33:51;95085.09;;;32.27;38.37
1954;BME280;977;42.704;23.354;2022-07-29T12:36:17;95086.53;;;32.50;37.61
1954;BME280;977;42.704;23.354;2022-07-29T12:38:46;95087.81;;;32.70;37.56
1954;BME280;977;42.704;23.354;2022-07-29T12:41:12;95081.66;;;32.61;37.12
1954;BME280;977;42.704;23.354;2022-07-29T12:43:37;95086.84;;;32.31;37.96
1954;BME280;977;42.704;23.354;2022-07-29T12:46:14;95076.06;;;32.14;38.34
1954;BME280;977;42.704;23.354;2022-07-29T12:48:42;95081.94;;;32.25;38.49
1954;BME280;977;42.704;23.354;2022-07-29T12:51:08;95082.78;;;32.51;37.69
1954;BME280;977;42.704;23.354;2022-07-29T12:53:36;95078.94;;;32.61;37.25
1954;BME280;977;42.704;23.354;2022-07-29T12:56:02;95070.69;;;32.66;37.39
1954;BME280;977;42.704;23.354;2022-07-29T12:58:49;95063.22;;;32.80;37.08
1954;BME280;977;42.704;23.354;2022-07-29T13:01:16;95063.09;;;32.60;36.52
1954;BME280;977;42.704;23.354;2022-07-29T13:06:31;95047.41;;;32.44;37.22
1954;BME280;977;42.704;23.354;2022-07-29T13:11:36;95061.63;;;32.36;37.29
1954;BME280;977;42.704;23.354;2022-07-29T13:14:02;95055.47;;;32.18;37.12
1954;BME280;977;42.704;23.354;2022-07-29T13:16:28;95055.13;;;31.94;37.92
1954;BME280;977;42.704;23.354;2022-07-29T13:19:07;95052.16;;;31.95;38.34
1954;BME280;977;42.704;23.354;2022-07-29T13:21:33;95046.44;;;32.14;37.62
1954;BME280;977;42.704;23.354;2022-07-29T13:23:59;95042.31;;;32.25;38.12
1954;BME280;977;42.704;23.354;2022-07-29T13:26:27;95044.22;;;32.25;37.44
1954;BME280;977;42.704;23.354;2022-07-29T13:28:54;95038.50;;;32.35;37.34
1954;BME280;977;42.704;23.354;2022-07-29T13:31:20;95042.63;;;32.59;37.29
1954;BME280;977;42.704;23.354;2022-07-29T13:33:45;95045.66;;;32.57;37.59
1954;BME280;977;42.704;23.354;2022-07-29T13:36:10;95035.69;;;32.40;37.27
1954;BME280;977;42.704;23.354;2022-07-29T13:38:36;95035.19;;;32.29;37.90
1954;BME280;977;42.704;23.354;2022-07-29T13:41:01;95028.53;;;32.01;38.15
1954;BME280;977;42.704;23.354;2022-07-29T13:43:27;95032.50;;;32.03;38.64
1954;BME280;977;42.704;23.354;2022-07-29T13:45:52;95018.88;;;31.91;38.22
1954;BME280;977;42.704;23.354;2022-07-29T13:48:18;95029.81;;;31.86;38.88
1954;BME280;977;42.704;23.354;2022-07-29T13:50:43;95030.38;;;31.74;38.20
1954;BME280;977;42.704;23.354;2022-07-29T13:53:10;95021.22;;;31.84;38.85
1954;BME280;977;42.704;23.354;2022-07-29T13:55:39;95032.63;;;31.90;38.61
1954;BME280;977;42.704;23.354;2022-07-29T13:58:07;95025.34;;;31.81;39.13
1954;BME280;977;42.704;23.354;2022-07-29T14:00:33;95030.59;;;31.87;38.37
1954;BME280;977;42.704;23.354;2022-07-29T14:03:01;95013.81;;;31.98;37.83
1954;BME280;977;42.704;23.354;2022-07-29T14:05:27;95026.00;;;32.13;37.69
1954;BME280;977;42.704;23.354;2022-07-29T14:07:52;95019.81;;;32.21;37.95